• Join FlightAware (Why Join?)
  • Login
  • US Flag 
07:33AM EDT


 

Airport Tracker/Info


-or-


 

Live Flight TrackerFlight Track Log ✈ SWA1377 ✈ 05-May-2013 ✈ KBUF - KBWI

Flight Track Log - Related Links

Times and Time Zones

All times are in EDT time to prevent confusion due to time zone crossing. See the SWA1377 flight status page for this flight to view local times or setup timezone preferences in your user account.

Time Position Orientation Groundspeed Altitude Reporting Facility
EDT Latitude Longitude Course Direction KTS MPH feet Rate Location/Type
12:28PM 42.9833 -78.6333 59° Northeast 219 252 4,500  Level Buffalo TRACON
12:29PM 42.9333 -78.6181 167° South 232 267 6,200 2,940 Climbing Cleveland Center
12:30PM 42.8625 -78.6231 183° South 249 287 9,700 2,760 Climbing Cleveland Center
12:31PM 42.7833 -78.6228 180° South 275 316 11,800 2,700 Climbing Cleveland Center
12:32PM 42.6894 -78.6228 180° South 309 356 15,200 3,120 Climbing Cleveland Center
12:33PM 42.5894 -78.6258 181° South 343 395 18,100 2,820 Climbing Cleveland Center
12:34PM 42.4831 -78.6236 179° South 364 419 20,900 3,000 Climbing Cleveland Center
12:35PM 42.3767 -78.6128 176° South 385 443 24,200 2,040 Climbing Cleveland Center
12:36PM 42.2917 -78.5258 143° Southeast 360 414 25,000 360 Climbing Cleveland Center
12:37PM 42.2108 -78.4331 140° Southeast 365 420 25,000  Level Cleveland Center
12:38PM 42.1108 -78.3244 141° Southeast 395 455 25,000  Level Cleveland Center
12:39PM 42.0192 -78.2214 140° Southeast 409 471 25,000  Level Cleveland Center
12:40PM 41.9403 -78.1350 141° Southeast 415 478 25,000  Level Cleveland Center
12:41PM 41.8647 -78.0542 141° Southeast 426 490 25,000  Level New York Center
12:42PM 41.7731 -77.9522 140° Southeast 421 484 25,000  Level New York Center
12:43PM 41.6833 -77.8511 140° Southeast 421 484 25,000  Level New York Center
12:44PM 41.5914 -77.7497 140° Southeast 421 484 25,000  Level New York Center
12:45PM 41.5014 -77.6489 140° Southeast 421 484 25,000 -60 Level New York Center
12:46PM 41.4192 -77.5575 140° Southeast 421 484 24,900 -660 Descending New York Center
12:47PM 41.3267 -77.4625 142° Southeast 421 484 23,800 -1,140 Descending New York Center
12:48PM 41.2264 -77.3533 141° Southeast 421 484 22,700 -1,080 Descending New York Center
12:49PM 41.1397 -77.2622 142° Southeast 416 479 21,700 -1,020 Descending New York Center
12:50PM 41.0553 -77.1686 140° Southeast 410 472 20,700 -1,020 Descending New York Center
12:51PM 40.9706 -77.0783 141° Southeast 404 465 19,700 -1,080 Descending New York Center
12:52PM 40.8875 -76.9911 142° Southeast 399 459 18,600 -900 Descending New York Center
12:53PM 40.8086 -76.9069 141° Southeast 382 440 18,000 -900 Descending New York Center
12:54PM 40.7319 -76.8153 138° Southeast 375 432 16,900 -1,080 Descending New York Center
12:55PM 40.6592 -76.7294 138° Southeast 369 425 15,900 -960 Descending New York Center
12:56PM 40.5867 -76.6411 137° Southeast 364 419 15,000 -480 Descending New York Center
12:57PM 40.5247 -76.5431 130° Southeast 355 409 15,000  Level New York Center
12:58PM 40.4322 -76.5136 166° South 317 365 15,000 -120 Level New York Center
12:59PM 40.3339 -76.5244 185° South 340 391 14,800 -600 Descending New York Center
01:00PM 40.2331 -76.5378 186° South 361 415 13,900 -1,020 Descending New York Center
01:01PM 40.1450 -76.5494 186° South 361 415 12,900 -660 Descending New York Center
01:03PM 39.9500 -76.5667 184° South 315 362 12,000 -360 Descending Potomac TRACON
01:03PM 39.8833 -76.5833 191° South 289 333 12,000  Level Potomac TRACON
01:05PM 39.8000 -76.6167 197° South 295 339 12,000 -300 Level Potomac TRACON
01:06PM 39.7167 -76.6500 197° South 291 335 11,400 -1,080 Descending Potomac TRACON
01:06PM 39.6500 -76.6833 201° Southwest 285 328 10,000 -1,500 Descending Potomac TRACON
01:08PM 39.5667 -76.7167 197° South 280 322 8,500 -1,440 Descending Potomac TRACON
01:09PM 39.5000 -76.7500 201° Southwest 276 318 7,000 -1,500 Descending Potomac TRACON
01:09PM 39.4333 -76.7833 201° Southwest 272 313 5,700 -1,440 Descending Potomac TRACON
01:11PM 39.3500 -76.8000 189° South 262 302 4,100 -1,200 Descending Potomac TRACON
01:12PM 39.2833 -76.8000 180° South 243 280 3,200 -900 Descending Potomac TRACON
01:12PM 39.2333 -76.7833 166° South 215 247 2,500 -900 Descending Potomac TRACON
01:14PM 39.1833 -76.7500 153° Southeast 176 203 1,500 -960 Descending Potomac TRACON
01:14PM 39.1833 -76.7167 90° East 129 148 600 -1,020 Descending Potomac TRACON
01:16PM 39.1667 -76.6667 270° West  Level FlightAware Approximate
01:23PM 39.1754 -76.6683 270° West  Level Estimated
01:24PM 39.1754 -76.6683 270° West  Level Estimated
01:25PM 39.1754 -76.6683 270° West  Level Estimated
01:26PM 39.1754 -76.6683 270° West  Level Estimated